createdAt,value
2018-01-12T00:00:37.257Z,18.77
2018-01-12T00:03:11.637Z,19.52
2018-01-12T00:05:45.720Z,19.95
2018-01-12T00:08:19.997Z,19.15
2018-01-12T00:10:53.952Z,19.73
2018-01-12T00:13:28.978Z,20.00
2018-01-12T00:16:04.417Z,21.35
2018-01-12T00:18:38.263Z,22.25
2018-01-12T00:21:13.888Z,29.90
2018-01-12T00:23:49.068Z,20.37
2018-01-12T00:26:26.452Z,20.50
2018-01-12T00:29:02.030Z,20.73
2018-01-12T00:31:36.657Z,21.65
2018-01-12T00:34:10.596Z,20.02
2018-01-12T00:36:45.370Z,19.23
2018-01-12T00:39:19.346Z,21.25
2018-01-12T00:41:53.693Z,20.00
2018-01-12T00:44:31.564Z,21.77
2018-01-12T00:47:05.369Z,21.00
2018-01-12T00:49:40.258Z,20.23
2018-01-12T00:52:13.953Z,21.80
2018-01-12T00:54:47.719Z,21.40
2018-01-12T00:57:21.422Z,19.73
2018-01-12T00:59:55.948Z,20.65
2018-01-12T01:02:30.470Z,20.77
2018-01-12T01:05:04.302Z,20.52
2018-01-12T01:07:38.817Z,21.52
2018-01-12T01:10:12.614Z,21.30
2018-01-12T01:12:46.330Z,21.67
2018-01-12T01:15:20.793Z,19.05
2018-01-12T01:17:54.477Z,19.70
2018-01-12T01:20:28.425Z,20.77
2018-01-12T01:23:02.407Z,21.00
2018-01-12T01:25:36.147Z,20.30
2018-01-12T01:28:10.602Z,19.00
2018-01-12T01:30:44.428Z,24.98
2018-01-12T01:33:18.487Z,21.37
2018-01-12T01:35:52.236Z,19.20
2018-01-12T01:38:26.848Z,18.90
2018-01-12T01:41:00.641Z,19.85
2018-01-12T01:43:35.214Z,19.55
2018-01-12T01:46:09.809Z,16.98
2018-01-12T01:48:44.711Z,19.67
2018-01-12T01:51:19.416Z,20.05
2018-01-12T01:53:54.365Z,19.95
2018-01-12T01:56:33.724Z,18.83
2018-01-12T01:59:10.596Z,22.00
2018-01-12T02:01:44.553Z,23.15
2018-01-12T02:04:19.085Z,22.98
2018-01-12T02:06:53.071Z,28.83
2018-01-12T02:09:27.141Z,18.27
2018-01-12T02:12:01.797Z,19.70
2018-01-12T02:14:36.563Z,22.08
2018-01-12T02:17:10.984Z,17.20
2018-01-12T02:19:45.355Z,18.67
2018-01-12T02:22:19.423Z,17.45
2018-01-12T02:24:53.580Z,18.67
2018-01-12T02:27:28.016Z,19.92
2018-01-12T02:30:02.108Z,19.73
2018-01-12T02:32:36.698Z,20.65
2018-01-12T02:35:13.497Z,20.45
2018-01-12T02:37:50.993Z,17.45
2018-01-12T02:40:30.055Z,18.35
2018-01-12T02:43:07.338Z,17.35
2018-01-12T02:45:41.506Z,18.17
2018-01-12T02:48:19.034Z,17.30
2018-01-12T02:50:54.802Z,18.52
2018-01-12T02:53:32.761Z,17.20
2018-01-12T02:56:06.666Z,18.60
2018-01-12T02:58:41.644Z,17.67
2018-01-12T03:01:16.717Z,18.23
2018-01-12T03:03:50.857Z,16.00
2018-01-12T03:06:24.771Z,16.20
2018-01-12T03:08:58.977Z,18.62
2018-01-12T03:11:33.258Z,16.55
2018-01-12T03:14:07.435Z,16.48
2018-01-12T03:16:41.909Z,17.20
2018-01-12T03:19:16.032Z,16.05
2018-01-12T03:21:50.821Z,17.05
2018-01-12T03:24:24.572Z,16.33
2018-01-12T03:26:59.341Z,16.02
2018-01-12T03:29:33.326Z,17.65
2018-01-12T03:32:07.379Z,15.55
2018-01-12T03:34:41.539Z,18.50
2018-01-12T03:37:15.812Z,16.30
2018-01-12T03:39:50.623Z,14.20
2018-01-12T03:42:24.753Z,15.55
2018-01-12T03:44:59.771Z,16.67
2018-01-12T03:47:34.571Z,14.05
2018-01-12T03:50:08.588Z,16.08
2018-01-12T03:52:42.850Z,17.42
2018-01-12T03:55:17.028Z,13.52
2018-01-12T03:57:50.906Z,16.55
2018-01-12T04:00:26.285Z,15.07
2018-01-12T04:03:00.985Z,16.00
2018-01-12T04:05:37.486Z,16.50
2018-01-12T04:08:12.383Z,19.10
2018-01-12T04:10:46.971Z,16.25
2018-01-12T04:13:21.339Z,17.33
2018-01-12T04:15:55.279Z,16.33
2018-01-12T04:18:29.409Z,15.98
2018-01-12T04:21:04.173Z,16.30
2018-01-12T04:23:38.340Z,16.02
2018-01-12T04:26:12.739Z,16.15
2018-01-12T04:28:46.965Z,16.17
2018-01-12T04:31:21.746Z,18.70
2018-01-12T04:33:56.686Z,31.17
2018-01-12T04:36:31.190Z,23.02
2018-01-12T04:39:05.199Z,16.42
2018-01-12T04:41:41.508Z,15.13
2018-01-12T04:44:17.187Z,16.42
2018-01-12T04:46:52.883Z,15.60
2018-01-12T04:49:29.643Z,16.52
2018-01-12T04:52:03.667Z,16.08
2018-01-12T04:54:37.690Z,16.77
2018-01-12T04:57:14.497Z,16.33
2018-01-12T04:59:49.338Z,17.62
2018-01-12T05:02:24.241Z,17.17
2018-01-12T05:04:59.929Z,17.02
2018-01-12T05:07:35.049Z,17.65
2018-01-12T05:10:11.991Z,17.90
2018-01-12T05:12:47.277Z,17.52
2018-01-12T05:15:23.220Z,19.95
2018-01-12T05:17:57.367Z,23.42
2018-01-12T05:20:31.253Z,15.35
2018-01-12T05:23:05.972Z,17.12
2018-01-12T05:25:42.806Z,19.52
2018-01-12T05:28:17.152Z,17.80
2018-01-12T05:30:51.301Z,36.13
2018-01-12T05:33:26.237Z,18.05
2018-01-12T05:36:00.641Z,16.05
2018-01-12T05:38:34.597Z,16.42
2018-01-12T05:41:08.987Z,15.85
2018-01-12T05:43:43.007Z,15.35
2018-01-12T05:46:17.196Z,16.45
2018-01-12T05:48:51.848Z,14.05
2018-01-12T05:51:25.903Z,15.00
2018-01-12T05:54:02.954Z,15.82
2018-01-12T05:56:38.491Z,14.65
2018-01-12T05:59:15.628Z,15.18
2018-01-12T06:02:04.604Z,14.73
2018-01-12T06:04:52.607Z,13.40
2018-01-12T06:07:29.475Z,15.90
2018-01-12T06:10:03.765Z,13.68
2018-01-12T06:12:43.444Z,14.25
2018-01-12T06:15:18.579Z,16.42
2018-01-12T06:17:53.081Z,16.27
2018-01-12T06:20:28.287Z,15.25
2018-01-12T06:23:03.016Z,15.27
2018-01-12T06:25:39.979Z,13.70
2018-01-12T06:28:15.044Z,14.77
2018-01-12T06:30:48.873Z,14.52
2018-01-12T06:33:22.839Z,14.45
2018-01-12T06:35:56.750Z,22.37
2018-01-12T06:38:31.059Z,16.02
2018-01-12T06:41:05.787Z,16.05
2018-01-12T06:43:42.351Z,18.50
2018-01-12T06:46:17.213Z,20.75
2018-01-12T06:48:51.495Z,14.80
2018-01-12T06:51:26.832Z,16.25
2018-01-12T06:54:01.481Z,14.00
2018-01-12T06:56:35.113Z,14.60
2018-01-12T06:59:08.726Z,14.40
2018-01-12T07:01:42.565Z,15.05
2018-01-12T07:04:17.348Z,15.25
2018-01-12T07:06:52.525Z,16.00
2018-01-12T07:09:27.163Z,14.50
2018-01-12T07:12:00.929Z,14.57
2018-01-12T07:14:34.700Z,14.57
2018-01-12T07:17:09.072Z,14.60
2018-01-12T07:19:43.755Z,13.88
2018-01-12T07:22:27.182Z,16.10
2018-01-12T07:25:00.897Z,18.15
2018-01-12T07:27:34.755Z,13.05
2018-01-12T07:30:08.515Z,13.73
2018-01-12T07:32:42.079Z,16.40
2018-01-12T07:35:16.416Z,15.00
2018-01-12T07:37:50.055Z,14.63
2018-01-12T07:40:23.857Z,13.02
2018-01-12T07:42:58.304Z,13.98
2018-01-12T07:45:32.088Z,12.85
2018-01-12T07:48:05.861Z,13.65
2018-01-12T07:50:40.826Z,13.05
2018-01-12T07:53:20.236Z,14.13
2018-01-12T07:55:54.732Z,12.43
2018-01-12T07:58:29.253Z,14.85
2018-01-12T08:01:08.811Z,13.07
2018-01-12T08:03:42.400Z,14.07
2018-01-12T08:06:15.996Z,13.05
2018-01-12T08:08:49.715Z,15.00
2018-01-12T08:11:23.393Z,12.80
2018-01-12T08:13:57.097Z,13.18
2018-01-12T08:16:30.923Z,14.40
2018-01-12T08:19:04.547Z,15.32
2018-01-12T08:21:38.144Z,16.15
2018-01-12T08:24:11.860Z,14.48
2018-01-12T08:26:45.417Z,15.25
2018-01-12T08:29:19.805Z,14.73
2018-01-12T08:31:53.486Z,14.63
2018-01-12T08:34:27.152Z,12.70
2018-01-12T08:37:00.729Z,14.48
2018-01-12T08:39:35.079Z,14.18
2018-01-12T08:42:09.578Z,14.13
2018-01-12T08:44:44.269Z,12.45
2018-01-12T08:47:18.690Z,11.82
2018-01-12T08:49:53.115Z,12.37
2018-01-12T08:52:26.743Z,12.35
2018-01-12T08:55:00.323Z,13.10
2018-01-12T08:57:34.953Z,11.02
2018-01-12T09:00:08.603Z,11.90
2018-01-12T09:02:42.154Z,12.30
2018-01-12T09:05:16.636Z,11.12
2018-01-12T09:07:51.059Z,12.02
2018-01-12T09:10:24.661Z,11.07
2018-01-12T09:12:58.256Z,11.02
2018-01-12T09:15:32.588Z,11.63
2018-01-12T09:18:06.185Z,11.02
2018-01-12T09:20:40.037Z,12.93
2018-01-12T09:23:25.629Z,11.05
2018-01-12T09:25:59.213Z,11.55
2018-01-12T09:28:32.755Z,12.85
2018-01-12T09:31:06.364Z,11.90
2018-01-12T09:33:39.999Z,11.98
2018-01-12T09:36:13.575Z,12.23
2018-01-12T09:38:53.162Z,9.32
2018-01-12T09:41:26.782Z,11.88
2018-01-12T09:44:01.036Z,10.73
2018-01-12T09:46:34.559Z,12.35
2018-01-12T09:49:08.985Z,12.02
2018-01-12T09:51:42.642Z,10.55
2018-01-12T09:54:16.220Z,10.60
2018-01-12T09:56:49.930Z,10.27
2018-01-12T09:59:30.386Z,10.48
2018-01-12T10:02:04.936Z,10.73
2018-01-12T10:04:38.464Z,10.20
2018-01-12T10:07:19.430Z,10.70
2018-01-12T10:09:52.979Z,11.20
2018-01-12T10:12:26.500Z,9.05
2018-01-12T10:15:00.075Z,10.68
2018-01-12T10:17:33.608Z,10.07
2018-01-12T10:20:08.028Z,10.30
2018-01-12T10:22:41.753Z,10.07
2018-01-12T10:25:15.448Z,8.48
2018-01-12T10:27:49.740Z,8.73
2018-01-12T10:30:30.105Z,9.75
2018-01-12T10:33:03.780Z,9.40
2018-01-12T10:35:49.215Z,7.85
2018-01-12T10:38:22.770Z,8.05
2018-01-12T10:41:19.028Z,8.80
2018-01-12T10:43:52.724Z,9.98
2018-01-12T10:46:38.286Z,9.88
2018-01-12T10:49:26.821Z,9.65
2018-01-12T10:52:07.061Z,9.65
2018-01-12T10:54:40.720Z,10.43
2018-01-12T10:57:14.295Z,10.50
2018-01-12T10:59:47.870Z,10.35
2018-01-12T11:02:21.425Z,9.65
2018-01-12T11:04:54.995Z,11.18
2018-01-12T11:07:28.538Z,10.00
2018-01-12T11:10:02.948Z,10.60
2018-01-12T11:12:36.536Z,10.00
2018-01-12T11:15:10.127Z,11.02
2018-01-12T11:17:43.690Z,10.77
2018-01-12T11:20:17.217Z,9.85
2018-01-12T11:22:50.821Z,9.82
2018-01-12T11:25:24.346Z,9.80
2018-01-12T11:27:57.923Z,9.75
2018-01-12T11:30:31.602Z,9.15
2018-01-12T11:33:05.183Z,9.68
2018-01-12T11:35:38.735Z,8.30
2018-01-12T11:38:12.238Z,8.15
2018-01-12T11:40:45.791Z,9.95
2018-01-12T11:43:20.113Z,10.20
2018-01-12T11:45:53.777Z,10.32
2018-01-12T11:48:27.324Z,9.20
2018-01-12T11:51:01.090Z,8.07
2018-01-12T11:53:35.375Z,8.93
2018-01-12T11:56:08.943Z,8.95
2018-01-12T11:58:43.291Z,8.48
2018-01-12T12:01:16.878Z,9.27
2018-01-12T12:03:50.478Z,9.00
2018-01-12T12:06:24.015Z,9.75
2018-01-12T12:08:57.712Z,9.82
2018-01-12T12:11:31.411Z,9.20
2018-01-12T12:14:05.016Z,9.50
2018-01-12T12:16:38.577Z,9.20
2018-01-12T12:19:12.201Z,7.53
2018-01-12T12:21:45.760Z,8.38
2018-01-12T12:24:19.291Z,6.53
2018-01-12T12:26:52.875Z,7.50
2018-01-12T12:29:26.414Z,7.47
2018-01-12T12:31:59.951Z,7.70
2018-01-12T12:34:33.613Z,8.35
2018-01-12T12:37:07.188Z,7.65
2018-01-12T12:39:40.728Z,9.00
2018-01-12T12:42:14.278Z,8.48
2018-01-12T12:44:47.774Z,8.85
2018-01-12T12:47:21.376Z,8.98
2018-01-12T12:49:54.881Z,8.57
2018-01-12T12:52:28.390Z,8.55
2018-01-12T12:55:02.720Z,8.95
2018-01-12T12:57:36.291Z,8.85
2018-01-12T13:00:09.919Z,9.85
2018-01-12T13:02:43.423Z,8.68
2018-01-12T13:05:17.022Z,10.07
2018-01-12T13:07:50.590Z,9.90
2018-01-12T13:10:24.142Z,9.90
2018-01-12T13:12:57.824Z,10.85
2018-01-12T13:15:31.347Z,9.38
2018-01-12T13:18:04.908Z,10.02
2018-01-12T13:20:38.571Z,9.00
2018-01-12T13:23:12.824Z,9.70
2018-01-12T13:25:46.367Z,9.35
2018-01-12T13:28:19.899Z,9.02
2018-01-12T13:30:53.630Z,9.60
2018-01-12T13:33:27.218Z,10.95
2018-01-12T13:36:00.743Z,11.70
2018-01-12T13:38:35.248Z,11.60
2018-01-12T13:41:08.851Z,12.07
2018-01-12T13:43:42.349Z,10.13
2018-01-12T13:46:15.976Z,10.32
2018-01-12T13:48:49.556Z,10.32
2018-01-12T13:51:23.287Z,9.98
2018-01-12T13:53:56.882Z,8.90
2018-01-12T13:56:30.592Z,8.80
2018-01-12T13:59:04.147Z,10.00
2018-01-12T14:01:37.674Z,10.05
2018-01-12T14:04:11.329Z,9.70
2018-01-12T14:06:45.567Z,9.60
2018-01-12T14:09:19.104Z,9.57
2018-01-12T14:11:52.637Z,8.38
2018-01-12T14:14:26.216Z,8.63
2018-01-12T14:16:59.748Z,8.95
2018-01-12T14:19:33.349Z,8.55
2018-01-12T14:22:07.024Z,8.80
2018-01-12T14:24:40.585Z,9.40
2018-01-12T14:27:14.134Z,8.90
2018-01-12T14:29:47.709Z,9.40
2018-01-12T14:32:21.367Z,9.80
2018-01-12T14:34:55.684Z,8.70
2018-01-12T14:37:29.270Z,8.13
2018-01-12T14:40:02.871Z,8.65
2018-01-12T14:42:36.561Z,9.30
2018-01-12T14:45:10.189Z,9.38
2018-01-12T14:47:43.798Z,8.65
2018-01-12T14:50:18.116Z,10.43
2018-01-12T14:52:51.713Z,9.32
2018-01-12T14:55:25.308Z,8.43
2018-01-12T14:57:58.818Z,9.25
2018-01-12T15:00:32.340Z,9.00
2018-01-12T15:03:05.895Z,9.50
2018-01-12T15:05:39.429Z,8.93
2018-01-12T15:08:12.913Z,9.40
2018-01-12T15:10:47.230Z,9.73
2018-01-12T15:13:20.821Z,10.38
2018-01-12T15:15:54.414Z,8.80
2018-01-12T15:18:27.923Z,9.73
2018-01-12T15:21:01.510Z,9.70
2018-01-12T15:23:35.062Z,10.20
2018-01-12T15:26:09.409Z,8.88
2018-01-12T15:28:43.859Z,9.13
2018-01-12T15:31:17.392Z,8.50
2018-01-12T15:33:50.943Z,9.82
2018-01-12T15:36:24.528Z,10.55
2018-01-12T15:38:58.256Z,8.70
2018-01-12T15:41:31.870Z,8.80
2018-01-12T15:44:06.293Z,8.20
2018-01-12T15:46:40.603Z,9.35
2018-01-12T15:49:14.923Z,10.80
2018-01-12T15:51:48.619Z,8.27
2018-01-12T15:54:22.180Z,9.13
2018-01-12T15:56:55.747Z,10.38
2018-01-12T15:59:30.031Z,9.65
2018-01-12T16:02:03.654Z,9.82
2018-01-12T16:04:37.256Z,8.52
2018-01-12T16:07:10.940Z,9.10
2018-01-12T16:09:44.475Z,7.72
2018-01-12T16:12:18.039Z,13.40
2018-01-12T16:14:51.575Z,13.05
2018-01-12T16:17:25.137Z,15.05
2018-01-12T16:19:59.464Z,12.90
2018-01-12T16:22:33.046Z,11.10
2018-01-12T16:25:06.644Z,9.23
2018-01-12T16:27:40.332Z,9.65
2018-01-12T16:30:14.022Z,16.05
2018-01-12T16:32:47.588Z,12.60
2018-01-12T16:35:21.166Z,12.93
2018-01-12T16:37:54.887Z,12.63
2018-01-12T16:40:28.379Z,11.85
2018-01-12T16:43:01.917Z,28.17
2018-01-12T16:45:35.660Z,12.50
2018-01-12T16:48:09.947Z,12.85
2018-01-12T16:50:43.726Z,10.93
2018-01-12T16:53:17.370Z,10.68
2018-01-12T16:55:51.099Z,13.00
2018-01-12T16:58:24.814Z,11.60
2018-01-12T17:00:58.788Z,10.90
2018-01-12T17:03:32.407Z,15.15
2018-01-12T17:06:06.011Z,11.00
2018-01-12T17:08:39.605Z,11.20
2018-01-12T17:11:13.330Z,12.48
2018-01-12T17:13:47.009Z,10.75
2018-01-12T17:16:20.571Z,13.23
2018-01-12T17:18:55.075Z,12.02
2018-01-12T17:21:28.726Z,14.90
2018-01-12T17:24:02.367Z,11.48
2018-01-12T17:26:36.725Z,12.65
2018-01-12T17:29:10.242Z,14.20
2018-01-12T17:31:43.774Z,16.27
2018-01-12T17:34:17.358Z,15.63
2018-01-12T17:36:50.869Z,13.70
2018-01-12T17:39:24.380Z,19.20
2018-01-12T17:41:58.111Z,14.38
2018-01-12T17:44:31.629Z,19.62
2018-01-12T17:47:05.310Z,18.00
2018-01-12T17:49:38.856Z,26.77
2018-01-12T17:52:12.444Z,17.75
2018-01-12T17:54:46.030Z,16.75
2018-01-12T17:57:19.588Z,11.55
2018-01-12T17:59:53.927Z,15.48
2018-01-12T18:02:27.580Z,14.95
2018-01-12T18:05:01.247Z,14.30
2018-01-12T18:07:34.983Z,15.35
2018-01-12T18:10:08.554Z,14.15
2018-01-12T18:12:42.176Z,13.00
2018-01-12T18:15:15.831Z,11.98
2018-01-12T18:17:49.423Z,11.10
2018-01-12T18:20:22.988Z,10.15
2018-01-12T18:22:57.314Z,13.73
2018-01-12T18:25:31.727Z,15.32
2018-01-12T18:28:05.276Z,18.15
2018-01-12T18:30:39.069Z,19.25
2018-01-12T18:33:12.630Z,15.45
2018-01-12T18:35:46.996Z,19.23
2018-01-12T18:38:21.555Z,18.95
2018-01-12T18:40:55.164Z,14.30
2018-01-12T18:43:28.815Z,19.37
2018-01-12T18:46:02.583Z,25.95
2018-01-12T18:48:36.382Z,23.67
2018-01-12T18:51:10.955Z,17.45
2018-01-12T18:53:44.698Z,25.73
2018-01-12T18:56:19.289Z,30.05
2018-01-12T18:58:53.069Z,25.27
2018-01-12T19:01:26.853Z,21.30
2018-01-12T19:04:01.269Z,31.42
2018-01-12T19:06:34.833Z,39.88
2018-01-12T19:09:08.491Z,30.90
2018-01-12T19:11:42.076Z,25.52
2018-01-12T19:14:15.633Z,33.85
2018-01-12T19:16:49.310Z,61.13
2018-01-12T19:19:22.964Z,31.62
2018-01-12T19:21:56.555Z,35.65
2018-01-12T19:24:30.098Z,34.72
2018-01-12T19:27:04.594Z,24.25
2018-01-12T19:29:38.186Z,23.77
2018-01-12T19:32:11.806Z,27.37
2018-01-12T19:34:45.392Z,25.77
2018-01-12T19:37:18.984Z,14.38
2018-01-12T19:39:52.491Z,17.73
2018-01-12T19:42:26.191Z,19.45
2018-01-12T19:44:59.730Z,13.93
2018-01-12T19:47:33.298Z,14.50
2018-01-12T19:50:06.854Z,13.25
2018-01-12T19:52:40.533Z,11.48
2018-01-12T19:55:14.067Z,12.20
2018-01-12T19:57:47.692Z,11.25
2018-01-12T20:00:21.272Z,11.35
2018-01-12T20:02:54.959Z,12.27
2018-01-12T20:05:28.534Z,11.65
2018-01-12T20:08:02.085Z,12.37
2018-01-12T20:10:35.773Z,12.95
2018-01-12T20:13:09.390Z,13.25
2018-01-12T20:15:43.022Z,13.77
2018-01-12T20:18:16.704Z,13.62
2018-01-12T20:20:50.319Z,11.80
2018-01-12T20:23:23.881Z,13.43
2018-01-12T20:25:57.388Z,12.73
2018-01-12T20:28:31.079Z,12.82
2018-01-12T20:31:04.923Z,11.93
2018-01-12T20:33:39.538Z,11.43
2018-01-12T20:36:13.901Z,12.18
2018-01-12T20:38:47.455Z,11.98
2018-01-12T20:41:21.173Z,11.10
2018-01-12T20:43:55.003Z,13.00
2018-01-12T20:46:29.673Z,14.48
2018-01-12T20:49:03.406Z,14.38
2018-01-12T20:51:37.189Z,13.60
2018-01-12T20:54:11.062Z,13.40
2018-01-12T20:56:45.662Z,11.30
2018-01-12T20:59:19.208Z,12.45
2018-01-12T21:01:52.870Z,12.15
2018-01-12T21:04:26.399Z,10.98
2018-01-12T21:07:00.047Z,11.07
2018-01-12T21:09:33.648Z,12.07
2018-01-12T21:12:07.950Z,11.70
2018-01-12T21:14:42.259Z,12.65
2018-01-12T21:17:15.920Z,12.73
2018-01-12T21:19:49.575Z,11.00
2018-01-12T21:22:23.290Z,11.35
2018-01-12T21:24:57.585Z,11.45
2018-01-12T21:27:31.283Z,12.02
2018-01-12T21:30:04.908Z,12.05
2018-01-12T21:32:38.679Z,12.95
2018-01-12T21:35:12.892Z,13.52
2018-01-12T21:37:46.700Z,12.35
2018-01-12T21:40:20.315Z,12.40
2018-01-12T21:42:53.917Z,12.70
2018-01-12T21:45:28.232Z,13.82
2018-01-12T21:48:02.629Z,13.18
2018-01-12T21:50:36.338Z,16.95
2018-01-12T21:53:09.963Z,14.98
2018-01-12T21:55:43.531Z,15.43
2018-01-12T21:58:17.194Z,12.23
2018-01-12T22:00:50.761Z,13.65
2018-01-12T22:03:26.769Z,15.90
2018-01-12T22:06:01.992Z,31.73
2018-01-12T22:08:36.789Z,17.17
2018-01-12T22:11:16.452Z,14.07
2018-01-12T22:13:55.752Z,17.80
2018-01-12T22:16:38.728Z,17.75
2018-01-12T22:19:28.773Z,15.05
2018-01-12T22:22:04.081Z,22.45
2018-01-12T22:24:44.883Z,16.23
2018-01-12T22:27:21.921Z,18.25
2018-01-12T22:30:00.534Z,15.85
2018-01-12T22:32:39.820Z,23.17
2018-01-12T22:35:15.394Z,21.65
2018-01-12T22:37:52.008Z,20.52
2018-01-12T22:40:32.830Z,17.30
2018-01-12T22:43:19.645Z,15.50
2018-01-12T22:46:01.996Z,17.25
2018-01-12T22:48:39.742Z,22.02
2018-01-12T22:54:27.592Z,15.35
2018-01-12T22:57:03.474Z,16.02
2018-01-12T22:59:40.384Z,14.07
2018-01-12T23:02:18.466Z,14.57
2018-01-12T23:04:56.277Z,16.30
2018-01-12T23:07:31.944Z,13.70
2018-01-12T23:10:10.016Z,18.90
2018-01-12T23:12:47.319Z,15.43
2018-01-12T23:15:25.626Z,15.18
2018-01-12T23:18:00.562Z,12.35
2018-01-12T23:20:39.488Z,12.75
2018-01-12T23:23:15.632Z,26.52
2018-01-12T23:25:51.058Z,15.25
2018-01-12T23:28:29.708Z,15.70
2018-01-12T23:33:52.119Z,16.37
2018-01-12T23:36:30.927Z,19.10
2018-01-12T23:39:07.993Z,20.17
2018-01-12T23:41:45.425Z,14.93
2018-01-12T23:44:20.319Z,10.88
2018-01-12T23:46:53.935Z,10.07
2018-01-12T23:49:32.458Z,11.10
2018-01-12T23:52:14.104Z,14.95
2018-01-12T23:54:50.839Z,13.02
2018-01-12T23:57:26.225Z,13.65
